Willard, MO

7:06 AM CST on March 05, 2015 (GMT -0600)
Springfield-Branson Regional | Change Station
CLOSE
Current Station
Airport
Location: Springfield,
Elevation: 1280 ft
Nearby Weather Stations

Elev 1280 ft 37.24 °N, 93.39 °W | Updated 14 minutes ago

Clear
Clear
13 °F
Feels Like 2 °F
N
8
Wind Variable Wind from NNW

Today
High -- | Low -- °F
--% Chance of Precip.
Yesterday
High -- | Low -- °F
Precip. -- in
6:39 AM 6:11 PM
Full, 100% visible
Pressure 30.52 in
Visibility 10.0 miles
Clouds Clear
Windchill 2 °F
Dew Point 6 °F
Humidity 74%
Rainfall 0.00 in
Snow Depth Not available.
UV 0 out of 12
Pollen 1.80 out of 12
Air Quality Not available.
Flu Activity Not available.
METAR KSGF 051252Z AUTO 34007KT 10SM CLR M11/M14 A3045 RMK AO2 SLP333 T11061144 $

More Conditions Fewer Conditions

Pressure 30.52 in
Visibility 10.0 miles
Clouds Clear
Windchill 2 °F
Dew Point 6 °F
Humidity 74%
Rainfall 0.00 in
Snow Depth Not available.
UV 0 out of 12
Pollen 1.80 out of 12
Air Quality Not available.
Flu Activity Not available.
METAR KSGF 051252Z AUTO 34007KT 10SM CLR M11/M14 A3045 RMK AO2 SLP333 T11061144 $

More Conditions Fewer Conditions

10-Day Weather Forecast

Almanac

Astronomy

Mar. 05, 2015 Rise Set
Actual Time
Civil Twilight
Nautical Twilight
Astronomical Twilight
Moon
Length of Visible Light
Length of Day
Tomorrow will be .
, % of the Moon is Illuminated

Today's Extremes

State Highs State Lows

Community

WunderPhotos

Upload Photos

1,802,749 photos uploaded!

WunderBlogs® & News

Nearby

Air Quality

  Air Quality AQ Index Pollutant
Not available.

Snow Depth

Station Depth Elevation

Earthquake Activity

City Distance Mag. Time & Date
Minimum magnitude displayed is 2.5.

Coastal Water Temperatures

Place Temperature

Nearby Weather Stations